createdAt,value
2023-02-25T00:02:27.907Z,6.91
2023-02-25T00:05:31.797Z,6.81
2023-02-25T00:08:34.669Z,6.86
2023-02-25T00:11:36.660Z,6.78
2023-02-25T00:14:38.071Z,6.70
2023-02-25T00:17:39.952Z,6.69
2023-02-25T00:20:41.413Z,6.67
2023-02-25T00:23:45.467Z,6.59
2023-02-25T00:26:46.918Z,6.54
2023-02-25T00:29:52.993Z,6.55
2023-02-25T00:32:54.456Z,6.61
2023-02-25T00:35:55.857Z,6.54
2023-02-25T00:38:57.656Z,6.56
2023-02-25T00:41:59.068Z,6.52
2023-02-25T00:45:00.451Z,6.41
2023-02-25T00:48:01.894Z,6.34
2023-02-25T00:51:14.604Z,6.23
2023-02-25T00:54:16.078Z,6.16
2023-02-25T00:57:17.516Z,6.11
2023-02-25T01:00:19.266Z,6.02
2023-02-25T01:03:20.646Z,5.93
2023-02-25T01:06:23.776Z,5.89
2023-02-25T01:09:25.516Z,5.85
2023-02-25T01:12:26.925Z,5.81
2023-02-25T01:15:30.710Z,5.76
2023-02-25T01:18:34.493Z,5.78
2023-02-25T01:21:40.056Z,5.79
2023-02-25T01:24:41.595Z,5.79
2023-02-25T01:27:43.678Z,5.78
2023-02-25T01:30:45.600Z,5.69
2023-02-25T01:33:47.043Z,5.68
2023-02-25T01:36:48.794Z,5.64
2023-02-25T01:39:50.266Z,5.64
2023-02-25T01:42:52.718Z,5.68
2023-02-25T01:45:56.473Z,5.64
2023-02-25T01:48:58.207Z,5.61
2023-02-25T01:52:07.802Z,5.56
2023-02-25T01:55:10.358Z,5.49
2023-02-25T01:58:12.491Z,5.46
2023-02-25T02:01:17.643Z,5.39
2023-02-25T02:04:22.053Z,5.37
2023-02-25T02:07:24.826Z,5.35
2023-02-25T02:10:26.392Z,5.36
2023-02-25T02:13:31.595Z,5.37
2023-02-25T02:17:10.660Z,5.38
2023-02-25T02:20:20.677Z,5.47
2023-02-25T02:23:59.049Z,5.51
2023-02-25T02:27:11.173Z,5.60
2023-02-25T02:30:32.812Z,5.67
2023-02-25T02:33:52.042Z,5.62
2023-02-25T02:37:05.190Z,5.64
2023-02-25T02:40:27.698Z,5.47
2023-02-25T02:43:37.403Z,5.48
2023-02-25T02:46:45.218Z,5.34
2023-02-25T02:49:53.724Z,5.37
2023-02-25T02:52:59.553Z,5.41
2023-02-25T02:56:04.879Z,5.57
2023-02-25T02:59:20.847Z,5.58
2023-02-25T03:02:37.815Z,5.59
2023-02-25T03:05:41.543Z,5.69
2023-02-25T03:08:48.016Z,5.74
2023-02-25T03:11:49.476Z,5.77
2023-02-25T03:14:52.806Z,5.63
2023-02-25T03:17:58.980Z,5.53
2023-02-25T03:21:03.599Z,5.48
2023-02-25T03:24:08.806Z,5.38
2023-02-25T03:27:34.225Z,5.31
2023-02-25T03:30:48.573Z,5.48
2023-02-25T03:34:03.202Z,5.41
2023-02-25T03:37:32.309Z,5.50
2023-02-25T03:40:35.146Z,5.46
2023-02-25T03:43:44.103Z,5.54
2023-02-25T03:46:47.148Z,5.50
2023-02-25T03:50:05.855Z,5.44
2023-02-25T03:53:07.316Z,5.32
2023-02-25T03:56:24.206Z,5.40
2023-02-25T03:59:27.901Z,5.33
2023-02-25T04:02:33.573Z,5.34
2023-02-25T04:05:36.080Z,5.29
2023-02-25T04:08:37.980Z,5.33
2023-02-25T04:11:39.386Z,5.41
2023-02-25T04:14:41.311Z,5.43
2023-02-25T04:17:45.096Z,5.30
2023-02-25T04:20:46.642Z,5.28
2023-02-25T04:23:48.036Z,5.35
2023-02-25T04:26:49.473Z,5.31
2023-02-25T04:29:50.907Z,5.40
2023-02-25T04:32:52.428Z,5.42
2023-02-25T04:35:53.857Z,5.49
2023-02-25T04:38:56.155Z,5.51
2023-02-25T04:41:57.649Z,5.63
2023-02-25T04:44:59.032Z,5.56
2023-02-25T04:48:00.443Z,5.49
2023-02-25T04:51:02.371Z,5.57
2023-02-25T04:54:04.025Z,5.68
2023-02-25T04:57:06.769Z,5.52
2023-02-25T05:00:16.123Z,5.65
2023-02-25T05:03:17.753Z,5.68
2023-02-25T05:06:19.132Z,5.82
2023-02-25T05:09:21.220Z,5.69
2023-02-25T05:12:22.595Z,5.69
2023-02-25T05:15:25.295Z,5.66
2023-02-25T05:18:26.830Z,5.65
2023-02-25T05:21:29.496Z,5.69
2023-02-25T05:24:31.332Z,5.70
2023-02-25T05:27:33.412Z,5.71
2023-02-25T05:30:35.026Z,5.68
2023-02-25T05:33:37.837Z,5.67
2023-02-25T05:36:40.343Z,5.83
2023-02-25T05:39:41.842Z,5.79
2023-02-25T05:42:43.375Z,5.77
2023-02-25T05:45:44.808Z,5.76
2023-02-25T05:48:46.591Z,5.85
2023-02-25T05:51:49.616Z,5.91
2023-02-25T05:54:50.989Z,5.84
2023-02-25T05:57:52.841Z,5.69
2023-02-25T06:00:54.288Z,5.66
2023-02-25T06:03:58.391Z,5.65
2023-02-25T06:06:59.843Z,5.72
2023-02-25T06:10:01.774Z,5.79
2023-02-25T06:13:03.186Z,5.76
2023-02-25T06:16:05.262Z,5.63
2023-02-25T06:19:07.129Z,5.64
2023-02-25T06:22:08.514Z,5.76
2023-02-25T06:25:09.975Z,5.60
2023-02-25T06:28:11.527Z,5.62
2023-02-25T06:31:15.912Z,5.65
2023-02-25T06:34:18.974Z,5.61
2023-02-25T06:37:20.379Z,5.67
2023-02-25T06:40:22.038Z,5.66
2023-02-25T06:43:23.429Z,5.59
2023-02-25T06:46:26.828Z,5.60
2023-02-25T06:49:29.584Z,5.58
2023-02-25T06:52:31.787Z,5.66
2023-02-25T06:55:33.377Z,5.68
2023-02-25T06:58:35.606Z,5.67
2023-02-25T07:01:37.854Z,5.80
2023-02-25T07:04:40.367Z,5.71
2023-02-25T07:07:42.638Z,5.67
2023-02-25T07:10:44.034Z,5.66
2023-02-25T07:13:49.828Z,5.67
2023-02-25T07:16:52.118Z,5.72
2023-02-25T07:19:53.512Z,5.90
2023-02-25T07:22:54.984Z,5.89
2023-02-25T07:25:56.362Z,5.86
2023-02-25T07:28:59.081Z,5.74
2023-02-25T07:32:00.770Z,5.78
2023-02-25T07:35:02.596Z,5.79
2023-02-25T07:38:04.133Z,5.84
2023-02-25T07:41:08.196Z,5.91
2023-02-25T07:44:09.700Z,5.81
2023-02-25T07:47:11.066Z,5.91
2023-02-25T07:50:13.074Z,6.03
2023-02-25T07:53:14.649Z,6.13
2023-02-25T07:56:17.539Z,6.09
2023-02-25T07:59:19.420Z,6.17
2023-02-25T08:02:21.785Z,6.08
2023-02-25T08:05:24.116Z,6.25
2023-02-25T08:08:25.713Z,6.20
2023-02-25T08:11:27.505Z,6.18
2023-02-25T08:14:28.910Z,6.29
2023-02-25T08:17:34.372Z,6.22
2023-02-25T08:20:36.358Z,6.35
2023-02-25T08:23:38.159Z,6.42
2023-02-25T08:26:39.587Z,6.52
2023-02-25T08:29:40.959Z,6.52
2023-02-25T08:32:42.582Z,6.53
2023-02-25T08:35:45.563Z,6.57
2023-02-25T08:38:47.348Z,6.74
2023-02-25T08:41:48.759Z,6.83
2023-02-25T08:44:50.267Z,6.82
2023-02-25T08:47:51.692Z,6.83
2023-02-25T08:50:53.130Z,6.78
2023-02-25T08:53:54.541Z,6.87
2023-02-25T08:56:57.159Z,6.89
2023-02-25T08:59:58.543Z,6.96
2023-02-25T09:02:59.979Z,7.10
2023-02-25T09:06:01.370Z,7.18
2023-02-25T09:09:02.926Z,7.01
2023-02-25T09:12:05.139Z,7.11
2023-02-25T09:15:07.435Z,6.93
2023-02-25T09:18:08.841Z,7.02
2023-02-25T09:21:12.417Z,7.03
2023-02-25T09:24:14.481Z,6.82
2023-02-25T09:27:17.103Z,6.85
2023-02-25T09:30:18.948Z,6.75
2023-02-25T09:33:20.533Z,6.71
2023-02-25T09:36:22.393Z,6.72
2023-02-25T09:39:23.835Z,6.70
2023-02-25T09:42:32.874Z,6.81
2023-02-25T09:45:35.023Z,6.99
2023-02-25T09:48:59.070Z,6.96
2023-02-25T09:52:14.035Z,6.87
2023-02-25T09:55:35.812Z,6.83
2023-02-25T09:58:43.338Z,7.03
2023-02-25T10:02:16.272Z,7.08
2023-02-25T10:05:39.162Z,7.06
2023-02-25T10:08:56.973Z,7.14
2023-02-25T10:12:13.406Z,7.05
2023-02-25T10:16:01.675Z,6.99
2023-02-25T10:19:40.852Z,6.88
2023-02-25T10:23:25.417Z,6.70
2023-02-25T10:26:33.384Z,6.52
2023-02-25T10:29:46.396Z,6.28
2023-02-25T10:32:48.953Z,6.06
2023-02-25T10:35:57.479Z,5.88
2023-02-25T10:38:59.082Z,6.01
2023-02-25T10:42:00.627Z,6.00
2023-02-25T10:45:14.994Z,5.98
2023-02-25T10:48:21.551Z,6.23
2023-02-25T10:51:23.839Z,6.43
2023-02-25T10:54:26.284Z,6.48
2023-02-25T10:57:40.084Z,6.46
2023-02-25T11:00:56.224Z,6.54
2023-02-25T11:04:02.629Z,6.68
2023-02-25T11:07:31.918Z,6.66
2023-02-25T11:10:34.975Z,6.64
2023-02-25T11:13:37.147Z,6.59
2023-02-25T11:16:42.041Z,6.68
2023-02-25T11:20:01.432Z,6.85
2023-02-25T11:23:03.001Z,6.74
2023-02-25T11:26:06.668Z,6.70
2023-02-25T11:29:20.325Z,6.88
2023-02-25T11:32:22.795Z,6.94
2023-02-25T11:35:31.788Z,6.87
2023-02-25T11:38:36.743Z,6.79
2023-02-25T11:41:38.183Z,6.62
2023-02-25T11:44:45.322Z,6.22
2023-02-25T11:47:49.327Z,5.71
2023-02-25T11:50:57.628Z,5.40
2023-02-25T11:54:20.880Z,5.52
2023-02-25T11:57:58.533Z,5.77
2023-02-25T12:01:27.806Z,5.83
2023-02-25T12:04:47.960Z,6.12
2023-02-25T12:08:13.843Z,6.22
2023-02-25T12:11:46.183Z,6.55
2023-02-25T12:15:09.202Z,6.97
2023-02-25T12:18:36.226Z,7.02
2023-02-25T12:22:12.530Z,7.34
2023-02-25T12:25:26.870Z,7.41
2023-02-25T12:28:49.742Z,7.47
2023-02-25T12:32:16.431Z,7.29
2023-02-25T12:35:27.569Z,7.17
2023-02-25T12:38:47.468Z,7.25
2023-02-25T12:42:21.140Z,7.38
2023-02-25T12:45:40.785Z,7.23
2023-02-25T12:49:09.147Z,7.16
2023-02-25T12:52:25.064Z,7.20
2023-02-25T12:55:57.420Z,7.22
2023-02-25T12:59:13.314Z,7.33
2023-02-25T13:02:42.625Z,7.59
2023-02-25T13:06:12.179Z,8.29
2023-02-25T13:09:39.098Z,7.99
2023-02-25T13:12:57.888Z,7.69
2023-02-25T13:16:21.028Z,7.94
2023-02-25T13:20:00.426Z,8.39
2023-02-25T13:23:26.703Z,8.36
2023-02-25T13:26:40.927Z,8.40
2023-02-25T13:30:12.380Z,8.13
2023-02-25T13:33:35.115Z,7.95
2023-02-25T13:36:48.786Z,7.86
2023-02-25T13:40:05.849Z,7.65
2023-02-25T13:43:19.970Z,7.60
2023-02-25T13:46:39.500Z,7.63
2023-02-25T13:49:59.598Z,7.59
2023-02-25T13:53:20.441Z,7.65
2023-02-25T13:57:15.329Z,7.84
2023-02-25T14:00:16.681Z,8.69
2023-02-25T14:03:55.808Z,8.87
2023-02-25T14:07:29.761Z,8.68
2023-02-25T14:10:53.081Z,8.34
2023-02-25T14:14:26.796Z,8.13
2023-02-25T14:17:48.596Z,7.67
2023-02-25T14:21:22.710Z,7.14
2023-02-25T14:24:49.258Z,6.92
2023-02-25T14:28:03.050Z,6.81
2023-02-25T14:31:20.059Z,6.67
2023-02-25T14:34:55.973Z,6.83
2023-02-25T14:38:13.056Z,6.86
2023-02-25T14:41:23.187Z,7.46
2023-02-25T14:44:35.281Z,7.23
2023-02-25T14:48:01.962Z,7.21
2023-02-25T14:51:12.326Z,7.42
2023-02-25T14:54:51.088Z,7.41
2023-02-25T14:58:17.284Z,7.60
2023-02-25T15:02:02.022Z,7.46
2023-02-25T15:05:54.575Z,7.33
2023-02-25T15:09:38.519Z,7.39
2023-02-25T15:12:59.599Z,7.39
2023-02-25T15:16:27.542Z,7.38
2023-02-25T15:20:00.839Z,7.51
2023-02-25T15:23:07.258Z,7.51
2023-02-25T15:26:39.201Z,7.43
2023-02-25T15:29:40.583Z,7.54
2023-02-25T15:33:13.411Z,7.52
2023-02-25T15:36:14.791Z,7.41
2023-02-25T15:39:53.580Z,7.40
2023-02-25T15:42:57.453Z,7.41
2023-02-25T15:46:07.971Z,7.34
2023-02-25T15:49:33.692Z,7.17
2023-02-25T15:52:53.829Z,7.06
2023-02-25T15:56:16.572Z,6.95
2023-02-25T15:59:41.054Z,6.89
2023-02-25T16:02:43.636Z,6.81
2023-02-25T16:05:46.624Z,6.67
2023-02-25T16:09:00.391Z,6.60
2023-02-25T16:12:07.019Z,6.40
2023-02-25T16:15:15.507Z,6.19
2023-02-25T16:18:21.299Z,6.15
2023-02-25T16:21:46.420Z,6.03
2023-02-25T16:24:51.690Z,5.80
2023-02-25T16:28:04.459Z,5.35
2023-02-25T16:31:21.378Z,4.93
2023-02-25T16:34:55.021Z,4.89
2023-02-25T16:38:14.374Z,4.87
2023-02-25T16:41:16.019Z,4.96
2023-02-25T16:44:21.506Z,4.87
2023-02-25T16:47:29.646Z,4.92
2023-02-25T16:50:33.835Z,4.74
2023-02-25T16:53:35.969Z,4.58
2023-02-25T16:56:37.711Z,4.55
2023-02-25T16:59:39.112Z,4.64
2023-02-25T17:02:48.299Z,4.62
2023-02-25T17:06:06.448Z,4.67
2023-02-25T17:09:22.482Z,4.65
2023-02-25T17:12:40.780Z,4.77
2023-02-25T17:15:42.408Z,4.62
2023-02-25T17:18:49.579Z,4.57
2023-02-25T17:21:57.101Z,4.60
2023-02-25T17:25:00.100Z,4.70
2023-02-25T17:28:01.776Z,4.83
2023-02-25T17:31:12.790Z,4.66
2023-02-25T17:34:18.761Z,4.58
2023-02-25T17:37:22.004Z,4.45
2023-02-25T17:40:26.899Z,4.39
2023-02-25T17:43:36.074Z,4.40
2023-02-25T17:46:42.179Z,4.21
2023-02-25T17:49:43.574Z,4.11
2023-02-25T17:52:47.692Z,4.05
2023-02-25T17:55:49.050Z,4.12
2023-02-25T17:58:52.279Z,4.02
2023-02-25T18:01:56.725Z,3.98
2023-02-25T18:05:22.718Z,3.99
2023-02-25T18:08:25.646Z,3.89
2023-02-25T18:11:39.178Z,3.86
2023-02-25T18:14:43.664Z,3.80
2023-02-25T18:17:50.152Z,3.89
2023-02-25T18:20:57.664Z,4.05
2023-02-25T18:24:00.134Z,3.94
2023-02-25T18:27:04.467Z,3.89
2023-02-25T18:30:12.055Z,4.00
2023-02-25T18:33:13.438Z,4.20
2023-02-25T18:36:27.065Z,4.23
2023-02-25T18:39:28.727Z,4.17
2023-02-25T18:42:30.106Z,4.16
2023-02-25T18:45:33.172Z,4.21
2023-02-25T18:48:35.378Z,4.27
2023-02-25T18:51:38.490Z,4.13
2023-02-25T18:54:41.556Z,4.23
2023-02-25T18:57:43.024Z,4.30
2023-02-25T19:00:48.068Z,4.26
2023-02-25T19:03:51.014Z,4.16
2023-02-25T19:06:52.421Z,4.14
2023-02-25T19:09:55.717Z,4.11
2023-02-25T19:13:07.569Z,4.09
2023-02-25T19:16:09.491Z,4.12
2023-02-25T19:19:10.920Z,4.04
2023-02-25T19:22:16.074Z,3.92
2023-02-25T19:25:22.973Z,3.97
2023-02-25T19:28:24.486Z,3.87
2023-02-25T19:31:25.914Z,3.77
2023-02-25T19:34:27.322Z,3.66
2023-02-25T19:37:32.015Z,3.41
2023-02-25T19:40:34.055Z,3.30
2023-02-25T19:43:35.556Z,3.29
2023-02-25T19:46:37.050Z,3.31
2023-02-25T19:49:38.532Z,3.27
2023-02-25T19:52:40.137Z,3.33
2023-02-25T19:55:43.669Z,3.27
2023-02-25T19:58:45.241Z,3.11
2023-02-25T20:01:47.190Z,3.02
2023-02-25T20:04:48.860Z,3.01
2023-02-25T20:07:50.731Z,2.95
2023-02-25T20:10:52.185Z,3.04
2023-02-25T20:13:53.616Z,2.98
2023-02-25T20:16:56.958Z,3.09
2023-02-25T20:19:58.347Z,3.12
2023-02-25T20:22:59.800Z,3.03
2023-02-25T20:26:09.377Z,2.95
2023-02-25T20:29:10.799Z,2.80
2023-02-25T20:32:12.415Z,2.86
2023-02-25T20:35:18.176Z,2.73
2023-02-25T20:38:34.641Z,2.69
2023-02-25T20:41:36.307Z,2.68
2023-02-25T20:44:38.523Z,2.61
2023-02-25T20:47:40.178Z,2.53
2023-02-25T20:50:42.017Z,2.45
2023-02-25T20:53:43.605Z,2.41
2023-02-25T20:56:46.050Z,2.35
2023-02-25T20:59:48.295Z,2.32
2023-02-25T21:02:49.772Z,2.41
2023-02-25T21:05:51.269Z,2.45
2023-02-25T21:08:53.637Z,2.47
2023-02-25T21:11:55.203Z,2.43
2023-02-25T21:14:56.661Z,2.39
2023-02-25T21:17:58.198Z,2.41
2023-02-25T21:21:02.723Z,2.38
2023-02-25T21:24:09.729Z,2.30
2023-02-25T21:27:11.919Z,2.34
2023-02-25T21:30:13.707Z,2.25
2023-02-25T21:33:15.919Z,2.24
2023-02-25T21:36:17.392Z,2.12
2023-02-25T21:39:18.857Z,1.91
2023-02-25T21:42:20.269Z,1.76
2023-02-25T21:45:21.704Z,1.71
2023-02-25T21:48:24.770Z,1.57
2023-02-25T21:51:28.191Z,1.50
2023-02-25T21:54:29.587Z,1.47
2023-02-25T21:57:30.996Z,1.36
2023-02-25T22:00:32.522Z,1.25
2023-02-25T22:03:33.976Z,1.19
2023-02-25T22:06:35.933Z,1.09
2023-02-25T22:09:37.312Z,1.00
2023-02-25T22:12:38.723Z,0.93
2023-02-25T22:15:40.178Z,0.89
2023-02-25T22:18:41.973Z,0.87
2023-02-25T22:21:43.378Z,0.85
2023-02-25T22:24:44.848Z,0.80
2023-02-25T22:27:46.350Z,0.88
2023-02-25T22:30:47.829Z,0.93
2023-02-25T22:33:49.805Z,0.98
2023-02-25T22:36:51.267Z,1.05
2023-02-25T22:39:52.635Z,1.18
2023-02-25T22:42:54.073Z,1.25
2023-02-25T22:46:38.102Z,1.41
2023-02-25T22:49:39.604Z,1.53
2023-02-25T22:52:41.079Z,1.64
2023-02-25T22:55:43.483Z,1.71
2023-02-25T22:58:45.094Z,1.68
2023-02-25T23:01:46.560Z,1.67
2023-02-25T23:04:47.985Z,1.67
2023-02-25T23:07:49.738Z,1.73
2023-02-25T23:10:51.449Z,1.66
2023-02-25T23:13:58.159Z,1.68
2023-02-25T23:16:59.552Z,1.61
2023-02-25T23:20:01.511Z,1.59
2023-02-25T23:23:04.929Z,1.57
2023-02-25T23:26:08.251Z,1.58
2023-02-25T23:29:11.341Z,1.42
2023-02-25T23:32:12.778Z,1.25
2023-02-25T23:35:14.312Z,1.14
2023-02-25T23:38:15.851Z,0.94
2023-02-25T23:41:17.372Z,0.87
2023-02-25T23:44:18.810Z,0.72
2023-02-25T23:47:20.242Z,0.67
2023-02-25T23:50:21.628Z,0.63
2023-02-25T23:53:23.414Z,0.56
2023-02-25T23:56:26.985Z,0.59
2023-02-25T23:59:28.711Z,0.71
